Time;durP1;ratioP1;P1;durP2;ratioP2;P2;SDS_P1;SDS_P2;PMS_P1;PMS_P2;Temp;Humidity;BMP_temperature;BMP_pressure;BME280_temperature;BME280_humidity;BME280_pressure;Samples;Min_cycle;Max_cycle;Signal;HPM_P1;HPM_P2
2023/04/21 00:02:06;;;;;;;39.03;30.73;;;10.30;99.90;;;;;;5128289;27;20518;-72
2023/04/21 00:04:32;;;;;;;46.42;33.58;;;10.40;99.90;;;;;;5127893;27;20031;-72
2023/04/21 00:07:00;;;;;;;46.80;33.17;;;10.40;99.90;;;;;;5124545;27;20023;-72
2023/04/21 00:09:26;;;;;;;41.85;31.90;;;10.40;99.90;;;;;;5128098;27;20395;-72
2023/04/21 00:11:52;;;;;;;50.55;35.55;;;10.30;99.90;;;;;;5133360;27;20055;-73
2023/04/21 00:14:19;;;;;;;46.72;33.97;;;10.20;99.90;;;;;;5123726;27;20051;-73
2023/04/21 00:16:45;;;;;;;46.53;33.83;;;10.20;99.90;;;;;;5122843;27;20022;-72
2023/04/21 00:19:12;;;;;;;52.92;36.33;;;10.10;99.90;;;;;;5124885;27;20035;-72
2023/04/21 00:21:38;;;;;;;45.85;34.58;;;10.10;99.90;;;;;;5129729;27;20471;-72
2023/04/21 00:24:04;;;;;;;47.03;35.33;;;10.00;99.90;;;;;;5122194;27;20034;-72
2023/04/21 00:26:30;;;;;;;49.03;36.47;;;9.90;99.90;;;;;;5126760;27;20027;-72
2023/04/21 00:28:56;;;;;;;55.42;36.85;;;9.90;99.90;;;;;;5124073;27;20529;-72
2023/04/21 00:31:21;;;;;;;48.42;35.45;;;9.90;99.90;;;;;;5128724;27;20049;-73
2023/04/21 00:33:47;;;;;;;54.42;38.90;;;10.00;99.90;;;;;;5128022;27;20481;-72
2023/04/21 00:36:12;;;;;;;54.47;37.72;;;9.90;99.90;;;;;;5122128;27;20621;-73
2023/04/21 00:38:38;;;;;;;54.38;37.33;;;10.00;99.90;;;;;;5125082;27;20030;-73
2023/04/21 00:41:04;;;;;;;51.28;36.70;;;9.90;99.90;;;;;;5131906;27;20371;-72
2023/04/21 00:43:30;;;;;;;54.13;39.13;;;9.90;99.90;;;;;;5122868;27;20062;-73
2023/04/21 00:45:55;;;;;;;53.15;37.92;;;9.90;99.90;;;;;;5128120;27;20046;-73
2023/04/21 00:48:21;;;;;;;54.50;37.50;;;9.90;99.90;;;;;;5121996;27;20035;-73
2023/04/21 00:50:47;;;;;;;54.63;37.55;;;10.00;99.90;;;;;;5125198;27;20453;-72
2023/04/21 00:53:14;;;;;;;59.28;40.03;;;9.90;99.90;;;;;;5126651;27;20453;-72
2023/04/21 00:55:40;;;;;;;59.40;40.50;;;9.90;99.90;;;;;;5121672;27;20054;-72
2023/04/21 00:58:06;;;;;;;55.90;38.78;;;9.70;99.90;;;;;;5129642;27;20059;-72
2023/04/21 01:00:31;;;;;;;56.70;38.88;;;9.70;99.90;;;;;;5124067;27;20391;-71
2023/04/21 01:03:00;;;;;;;54.40;37.85;;;9.80;99.90;;;;;;5128438;27;20027;-72
2023/04/21 01:05:25;;;;;;;56.88;38.78;;;9.90;99.90;;;;;;5127455;27;20094;-71
2023/04/21 01:07:52;;;;;;;53.38;35.92;;;9.90;99.90;;;;;;5129674;27;20438;-71
2023/04/21 01:10:18;;;;;;;57.85;38.65;;;9.90;99.90;;;;;;5117761;27;20050;-71
2023/04/21 01:12:44;;;;;;;62.35;41.28;;;9.90;99.90;;;;;;5126851;27;20078;-71
2023/04/21 01:15:12;;;;;;;52.08;37.38;;;9.80;99.90;;;;;;5121436;27;20091;-71
2023/04/21 01:17:39;;;;;;;59.67;41.60;;;9.80;99.90;;;;;;5121598;27;20041;-71
2023/04/21 01:20:08;;;;;;;56.63;39.30;;;9.80;99.90;;;;;;5128218;27;20020;-71
2023/04/21 01:22:37;;;;;;;57.03;39.92;;;9.80;99.90;;;;;;5132066;27;20027;-71
2023/04/21 01:25:03;;;;;;;58.25;39.78;;;9.80;99.90;;;;;;5119566;27;20011;-70
2023/04/21 01:27:29;;;;;;;59.97;42.53;;;9.80;99.90;;;;;;5123527;27;20020;-72
2023/04/21 01:29:55;;;;;;;62.38;43.13;;;9.90;99.90;;;;;;5127021;27;20023;-72
2023/04/21 01:32:25;;;;;;;58.40;39.65;;;9.90;99.90;;;;;;5125899;27;20035;-70
2023/04/21 01:34:52;;;;;;;67.18;43.28;;;10.00;99.90;;;;;;5129647;27;20106;-71
2023/04/21 01:37:21;;;;;;;60.97;40.63;;;9.90;99.90;;;;;;5120043;27;20035;-71
2023/04/21 01:39:54;;;;;;;64.10;42.20;;;9.90;99.90;;;;;;5126060;27;20014;-71
2023/04/21 01:42:25;;;;;;;61.85;42.65;;;9.90;99.90;;;;;;5128496;27;20052;-70
2023/04/21 01:44:52;;;;;;;77.43;46.97;;;9.90;99.90;;;;;;5119438;27;20043;-71
2023/04/21 01:47:19;;;;;;;65.93;43.72;;;9.90;99.90;;;;;;5123169;27;20454;-71
2023/04/21 01:49:45;;;;;;;71.47;45.42;;;9.80;99.90;;;;;;5117499;27;20025;-71
2023/04/21 01:52:11;;;;;;;67.60;44.72;;;9.80;99.90;;;;;;5121745;27;20039;-70
2023/04/21 01:54:37;;;;;;;59.38;41.78;;;9.80;99.90;;;;;;5123803;27;20026;-70
2023/04/21 01:57:03;;;;;;;61.72;41.72;;;9.90;99.90;;;;;;5124468;27;21128;-71
2023/04/21 01:59:28;;;;;;;64.97;43.70;;;10.00;99.90;;;;;;5122297;27;20016;-70
2023/04/21 02:01:54;;;;;;;73.55;44.85;;;9.90;99.90;;;;;;5118077;27;20464;-71
2023/04/21 02:04:20;;;;;;;70.03;43.30;;;9.90;99.90;;;;;;5128437;27;20024;-70
2023/04/21 02:06:45;;;;;;;85.78;47.95;;;10.00;99.90;;;;;;5125247;27;20464;-70
2023/04/21 02:09:11;;;;;;;63.05;41.92;;;10.00;99.90;;;;;;5126331;27;20072;-71
2023/04/21 02:11:37;;;;;;;66.05;42.15;;;10.00;99.90;;;;;;5123424;27;20054;-71
2023/04/21 02:14:02;;;;;;;68.45;43.95;;;10.10;99.90;;;;;;5121316;27;20476;-71
2023/04/21 02:16:30;;;;;;;77.80;45.45;;;10.00;99.90;;;;;;5127904;27;20087;-70
2023/04/21 02:18:56;;;;;;;61.55;41.35;;;10.00;99.90;;;;;;5131877;27;20534;-71
2023/04/21 02:21:23;;;;;;;66.40;40.85;;;9.70;99.90;;;;;;5126363;27;20367;-70
2023/04/21 02:23:49;;;;;;;73.90;46.53;;;9.80;99.90;;;;;;5125226;27;20016;-71
2023/04/21 02:26:16;;;;;;;68.70;43.25;;;9.70;99.90;;;;;;5123831;27;20011;-71
2023/04/21 02:28:41;;;;;;;68.68;43.03;;;9.60;99.90;;;;;;5126841;27;20387;-71
2023/04/21 02:31:07;;;;;;;73.45;43.88;;;9.60;99.90;;;;;;5127129;27;20033;-71
2023/04/21 02:33:33;;;;;;;65.45;42.03;;;9.70;99.90;;;;;;5119510;27;20499;-70
2023/04/21 02:35:58;;;;;;;72.38;44.33;;;9.70;99.90;;;;;;5124097;27;20090;-71
2023/04/21 02:38:24;;;;;;;72.63;43.65;;;9.70;99.90;;;;;;5122653;27;20215;-71
2023/04/21 02:40:50;;;;;;;69.47;42.28;;;9.70;99.90;;;;;;5126347;27;20477;-70
2023/04/21 02:43:16;;;;;;;76.18;45.33;;;9.90;99.90;;;;;;5127146;27;20102;-71
2023/04/21 02:45:42;;;;;;;69.18;41.65;;;10.00;99.90;;;;;;5124182;27;20100;-71
2023/04/21 02:48:08;;;;;;;73.88;43.30;;;10.00;99.90;;;;;;5125914;27;20424;-71
2023/04/21 02:50:34;;;;;;;68.45;42.22;;;9.90;99.90;;;;;;5127491;27;20019;-71
2023/04/21 02:53:00;;;;;;;67.35;43.90;;;9.90;99.90;;;;;;5128483;27;20471;-71
2023/04/21 02:55:25;;;;;;;72.70;43.63;;;9.90;99.90;;;;;;5126356;27;20030;-71
2023/04/21 02:57:51;;;;;;;73.13;46.25;;;9.90;99.90;;;;;;5128060;27;20464;-71
2023/04/21 03:00:17;;;;;;;66.95;40.78;;;9.90;99.90;;;;;;5126606;27;20025;-70
2023/04/21 03:02:43;;;;;;;68.72;42.88;;;9.90;99.90;;;;;;5129051;27;20451;-71
2023/04/21 03:05:09;;;;;;;77.00;46.05;;;9.90;99.90;;;;;;5120751;27;20532;-71
2023/04/21 03:07:35;;;;;;;70.13;42.45;;;9.90;99.90;;;;;;5125712;27;20028;-71
2023/04/21 03:10:01;;;;;;;73.55;45.85;;;9.80;99.90;;;;;;5130388;27;20113;-71
2023/04/21 03:12:26;;;;;;;78.88;46.80;;;9.80;99.90;;;;;;5125566;27;20093;-71
2023/04/21 03:14:52;;;;;;;81.22;47.10;;;9.90;99.90;;;;;;5127726;27;20094;-71
2023/04/21 03:17:18;;;;;;;87.70;48.88;;;10.00;99.90;;;;;;5123366;27;20476;-71
2023/04/21 03:19:43;;;;;;;81.25;46.25;;;10.00;99.90;;;;;;5129755;27;20536;-71
2023/04/21 03:22:09;;;;;;;73.43;44.72;;;9.90;99.90;;;;;;5123095;27;20037;-71
2023/04/21 03:24:35;;;;;;;78.22;45.40;;;10.00;99.90;;;;;;5125144;27;20016;-71
2023/04/21 03:27:01;;;;;;;72.20;43.83;;;10.10;99.90;;;;;;5123706;27;20106;-71
2023/04/21 03:29:27;;;;;;;76.30;45.08;;;10.10;99.90;;;;;;5127048;27;20475;-72
2023/04/21 03:31:52;;;;;;;81.85;49.70;;;10.10;99.90;;;;;;5128256;27;20016;-71
2023/04/21 03:34:18;;;;;;;78.85;48.78;;;10.10;99.90;;;;;;5123495;27;20525;-71
2023/04/21 03:36:44;;;;;;;80.18;47.67;;;10.20;99.90;;;;;;5128694;27;20497;-72
2023/04/21 03:39:10;;;;;;;101.70;53.85;;;10.20;99.90;;;;;;5130524;27;20114;-71
2023/04/21 03:41:35;;;;;;;79.78;46.35;;;10.10;99.90;;;;;;5124503;27;20371;-72
2023/04/21 03:44:01;;;;;;;91.45;49.30;;;10.20;99.90;;;;;;5130431;27;20386;-71
2023/04/21 03:46:27;;;;;;;83.18;46.85;;;10.30;99.90;;;;;;5130427;27;20047;-72
2023/04/21 03:48:52;;;;;;;84.50;46.65;;;10.30;99.90;;;;;;5128567;27;20022;-71
2023/04/21 03:51:18;;;;;;;76.00;44.33;;;10.30;99.90;;;;;;5119520;27;20035;-72
2023/04/21 03:53:44;;;;;;;78.72;45.35;;;10.30;99.90;;;;;;5124867;27;20494;-71
2023/04/21 03:56:09;;;;;;;74.80;42.50;;;10.30;99.90;;;;;;5126488;27;20136;-71
2023/04/21 03:58:36;;;;;;;70.65;43.50;;;10.30;99.90;;;;;;5122208;27;20388;-71
2023/04/21 04:01:04;;;;;;;85.05;47.50;;;10.30;99.90;;;;;;5126601;27;20008;-72
2023/04/21 04:03:30;;;;;;;71.13;42.78;;;10.30;99.90;;;;;;5118181;27;20629;-71
2023/04/21 04:05:56;;;;;;;75.82;45.22;;;10.30;99.90;;;;;;5125678;27;20031;-72
2023/04/21 04:08:21;;;;;;;71.35;43.17;;;10.30;99.90;;;;;;5124953;27;20032;-71
2023/04/21 04:10:47;;;;;;;77.25;46.15;;;10.30;99.90;;;;;;5122169;27;20102;-71
2023/04/21 04:13:13;;;;;;;76.18;45.00;;;10.20;99.90;;;;;;5135304;27;20042;-71
2023/04/21 04:15:38;;;;;;;83.20;50.38;;;10.20;99.90;;;;;;5126019;27;20020;-71
2023/04/21 04:18:04;;;;;;;82.25;48.35;;;10.30;99.90;;;;;;5126707;27;20053;-72
2023/04/21 04:20:30;;;;;;;85.00;48.03;;;10.30;99.90;;;;;;5123483;27;20020;-71
2023/04/21 04:22:56;;;;;;;88.03;50.70;;;10.10;99.90;;;;;;5128477;27;20034;-71
2023/04/21 04:25:22;;;;;;;107.75;54.40;;;10.00;99.90;;;;;;5127288;27;20022;-71
2023/04/21 04:27:49;;;;;;;91.05;51.78;;;10.00;99.90;;;;;;5125815;27;20544;-71
2023/04/21 04:30:15;;;;;;;107.70;52.60;;;9.90;99.90;;;;;;5120318;27;20084;-72
2023/04/21 04:32:41;;;;;;;96.10;48.92;;;10.00;99.90;;;;;;5124486;27;20032;-71
2023/04/21 04:35:08;;;;;;;84.80;47.72;;;10.00;99.90;;;;;;5126530;27;20028;-72
2023/04/21 04:37:37;;;;;;;84.43;45.47;;;9.90;99.90;;;;;;5127946;27;20087;-71
2023/04/21 04:40:14;;;;;;;42.35;25.95;;;9.90;99.90;;;;;;5124289;27;20554;-72
2023/04/21 04:42:40;;;;;;;80.57;45.78;;;9.90;99.90;;;;;;5123894;27;20377;-72
2023/04/21 04:45:07;;;;;;;76.00;44.80;;;9.90;99.90;;;;;;5126089;27;20028;-71
2023/04/21 04:47:34;;;;;;;102.68;52.05;;;9.90;99.90;;;;;;5128339;27;20042;-71
2023/04/21 04:50:00;;;;;;;85.15;46.95;;;9.80;99.90;;;;;;5123734;27;20016;-72
2023/04/21 04:52:25;;;;;;;85.70;49.53;;;9.80;99.90;;;;;;5118958;27;20039;-71
2023/04/21 04:54:51;;;;;;;102.30;53.72;;;9.80;99.90;;;;;;5123809;27;20372;-72
2023/04/21 04:57:17;;;;;;;107.28;54.85;;;9.80;99.90;;;;;;5124375;27;20023;-72
2023/04/21 04:59:42;;;;;;;118.57;57.15;;;9.90;99.90;;;;;;5130856;27;20391;-72
2023/04/21 05:02:09;;;;;;;106.35;53.83;;;9.60;99.90;;;;;;5121011;27;20066;-72
2023/04/21 05:04:35;;;;;;;128.82;60.78;;;9.60;99.90;;;;;;5123199;27;20467;-72
2023/04/21 05:07:00;;;;;;;128.75;63.97;;;9.70;99.90;;;;;;5126828;27;20055;-72
2023/04/21 05:09:26;;;;;;;122.80;61.17;;;9.70;99.90;;;;;;5124621;27;20023;-71
2023/04/21 05:11:52;;;;;;;136.43;66.78;;;9.80;99.90;;;;;;5125841;27;20023;-72
2023/04/21 05:14:17;;;;;;;133.90;62.25;;;9.70;99.90;;;;;;5123297;27;20042;-72
2023/04/21 05:16:43;;;;;;;126.63;62.88;;;9.70;99.90;;;;;;5124183;27;20026;-72
2023/04/21 05:19:09;;;;;;;106.90;58.00;;;9.80;99.90;;;;;;5122429;27;20118;-72
2023/04/21 05:21:35;;;;;;;112.22;58.92;;;9.70;99.90;;;;;;5126594;27;20057;-71
2023/04/21 05:24:01;;;;;;;127.82;64.13;;;9.60;99.90;;;;;;5115543;27;20035;-72
2023/04/21 05:26:28;;;;;;;145.40;66.22;;;9.60;99.90;;;;;;5112514;28;20464;-72
2023/04/21 05:28:55;;;;;;;121.68;62.70;;;9.50;99.90;;;;;;5111828;27;20024;-72
2023/04/21 05:31:22;;;;;;;119.38;62.58;;;9.60;99.90;;;;;;5111080;28;20069;-72
2023/04/21 05:33:47;;;;;;;127.63;65.22;;;9.70;99.90;;;;;;5112443;28;20488;-71
2023/04/21 05:36:13;;;;;;;141.32;64.65;;;9.70;99.90;;;;;;5113547;28;20062;-72
2023/04/21 05:38:39;;;;;;;135.57;63.58;;;9.70;99.90;;;;;;5111429;28;20023;-72
2023/04/21 05:41:05;;;;;;;117.90;60.15;;;9.70;99.90;;;;;;5112941;27;20072;-71
2023/04/21 05:43:34;;;;;;;121.35;59.63;;;9.70;99.90;;;;;;5112893;28;20040;-72
2023/04/21 05:46:01;;;;;;;118.68;59.97;;;9.80;99.90;;;;;;5122444;27;20072;-71
2023/04/21 05:48:27;;;;;;;128.50;62.33;;;9.80;99.90;;;;;;5133916;27;20072;-72
2023/04/21 05:50:54;;;;;;;131.48;66.07;;;9.80;99.90;;;;;;5133752;27;20102;-72
2023/04/21 05:53:22;;;;;;;116.25;58.65;;;9.90;99.90;;;;;;5133738;27;20068;-72
2023/04/21 05:55:48;;;;;;;126.93;64.05;;;9.80;99.90;;;;;;5132347;27;20026;-71
2023/04/21 05:58:14;;;;;;;123.13;64.15;;;9.90;99.90;;;;;;5133340;27;20022;-72
2023/04/21 06:00:39;;;;;;;117.47;61.22;;;9.90;99.90;;;;;;5128692;27;20098;-72
2023/04/21 06:03:05;;;;;;;120.03;61.10;;;9.90;99.90;;;;;;5133789;27;20464;-73
2023/04/21 06:05:32;;;;;;;123.15;61.92;;;9.90;99.90;;;;;;5132941;27;20023;-72
2023/04/21 06:07:58;;;;;;;113.25;60.42;;;10.00;99.90;;;;;;5133291;27;20030;-72
2023/04/21 06:10:24;;;;;;;129.75;66.97;;;10.10;99.90;;;;;;5130745;27;20019;-72
2023/04/21 06:12:50;;;;;;;115.15;59.95;;;10.10;99.90;;;;;;5131581;27;20047;-72
2023/04/21 06:15:16;;;;;;;116.15;59.55;;;10.10;99.90;;;;;;5112686;28;20091;-72
2023/04/21 06:17:42;;;;;;;118.65;61.30;;;10.30;99.90;;;;;;5111654;28;20533;-72
2023/04/21 06:20:08;;;;;;;117.25;63.00;;;10.30;99.90;;;;;;5124830;27;20376;-72
2023/04/21 06:22:33;;;;;;;115.93;62.15;;;10.30;99.90;;;;;;5136919;27;20057;-72
2023/04/21 06:24:59;;;;;;;109.53;60.90;;;10.20;99.90;;;;;;5137352;27;20027;-72
2023/04/21 06:27:25;;;;;;;114.53;58.95;;;10.30;99.90;;;;;;5137306;27;20029;-71
2023/04/21 06:29:54;;;;;;;111.30;59.67;;;10.30;99.90;;;;;;5129579;27;20023;-71
2023/04/21 06:32:20;;;;;;;102.72;55.50;;;10.20;99.90;;;;;;5135834;27;20104;-72
2023/04/21 06:34:45;;;;;;;96.93;53.53;;;10.20;99.90;;;;;;5136325;27;20459;-72
2023/04/21 06:37:11;;;;;;;95.80;51.60;;;10.20;99.90;;;;;;5137247;27;20120;-72
2023/04/21 06:39:37;;;;;;;95.22;53.83;;;10.10;99.90;;;;;;5135853;27;20463;-73
2023/04/21 06:42:03;;;;;;;102.40;57.33;;;10.10;99.90;;;;;;5137366;27;20050;-72
2023/04/21 06:44:29;;;;;;;97.75;53.30;;;10.30;99.90;;;;;;5137474;27;20395;-74
2023/04/21 06:46:54;;;;;;;93.93;53.28;;;10.40;99.90;;;;;;5136911;27;20030;-72
2023/04/21 06:49:20;;;;;;;82.15;48.83;;;10.50;99.90;;;;;;5135925;27;20027;-72
2023/04/21 06:51:46;;;;;;;81.80;51.45;;;10.50;99.90;;;;;;5137091;27;20485;-73
2023/04/21 06:54:11;;;;;;;83.05;45.97;;;10.40;99.90;;;;;;5136442;27;20111;-71
2023/04/21 06:56:37;;;;;;;87.22;47.33;;;10.40;99.90;;;;;;5136788;27;20098;-72
2023/04/21 06:59:03;;;;;;;85.15;50.85;;;10.40;99.90;;;;;;5136796;27;20498;-72
2023/04/21 07:01:28;;;;;;;82.68;51.45;;;10.60;99.90;;;;;;5136696;27;20030;-72
2023/04/21 07:03:54;;;;;;;86.47;52.50;;;10.70;99.90;;;;;;5136481;27;20524;-71
2023/04/21 07:06:20;;;;;;;76.63;48.20;;;10.70;99.90;;;;;;5132133;27;20471;-73
2023/04/21 07:08:45;;;;;;;69.50;46.15;;;10.80;99.90;;;;;;5128682;27;20054;-72
2023/04/21 07:11:11;;;;;;;65.55;44.45;;;10.60;99.90;;;;;;5116433;27;20392;-72
2023/04/21 07:13:37;;;;;;;65.90;43.10;;;10.50;99.90;;;;;;5134826;27;20039;-72
2023/04/21 07:16:02;;;;;;;72.88;44.28;;;10.50;99.90;;;;;;5135311;27;20074;-72
2023/04/21 07:18:28;;;;;;;63.97;42.22;;;10.60;99.90;;;;;;5135032;27;20496;-72
2023/04/21 07:20:54;;;;;;;63.38;40.63;;;10.70;99.90;;;;;;5136521;27;20490;-71
2023/04/21 07:23:20;;;;;;;64.15;41.60;;;10.70;99.90;;;;;;5135630;27;20031;-71
2023/04/21 07:25:45;;;;;;;65.68;41.95;;;10.80;99.90;;;;;;5134382;27;20024;-71
2023/04/21 07:28:13;;;;;;;59.45;38.25;;;10.80;99.90;;;;;;5135687;27;20038;-73
2023/04/21 07:30:39;;;;;;;59.83;39.42;;;10.90;99.90;;;;;;5136431;27;20025;-71
2023/04/21 07:33:05;;;;;;;53.33;36.08;;;10.90;99.90;;;;;;5134823;27;20117;-71
2023/04/21 07:35:31;;;;;;;55.10;35.85;;;10.90;99.90;;;;;;5134732;27;20020;-71
2023/04/21 07:37:57;;;;;;;53.97;38.05;;;11.00;99.90;;;;;;5130848;27;20434;-72
2023/04/21 07:40:22;;;;;;;54.17;37.35;;;11.10;99.90;;;;;;5122343;27;20047;-71
2023/04/21 07:42:48;;;;;;;53.13;35.45;;;11.30;99.90;;;;;;5133099;27;20023;-71
2023/04/21 07:45:14;;;;;;;59.47;42.25;;;11.40;99.90;;;;;;5132262;27;20148;-71
2023/04/21 07:47:40;;;;;;;50.60;34.80;;;11.60;99.90;;;;;;5135477;27;20094;-70
2023/04/21 07:50:06;;;;;;;50.05;34.30;;;11.70;99.90;;;;;;5135580;27;20038;-71
2023/04/21 07:52:32;;;;;;;52.67;36.60;;;11.70;99.90;;;;;;5135402;27;20063;-71
2023/04/21 07:54:58;;;;;;;49.47;35.28;;;11.60;99.90;;;;;;5134840;27;20051;-71
2023/04/21 07:57:24;;;;;;;53.30;35.45;;;11.60;99.90;;;;;;5131108;27;20191;-71
2023/04/21 07:59:49;;;;;;;48.95;34.28;;;11.60;99.90;;;;;;5135639;27;20100;-72
2023/04/21 08:02:15;;;;;;;48.90;33.40;;;11.70;99.90;;;;;;5134373;27;20474;-72
2023/04/21 08:04:41;;;;;;;45.28;32.53;;;11.80;99.90;;;;;;5135650;27;20023;-72
2023/04/21 08:07:08;;;;;;;45.80;33.13;;;12.10;99.90;;;;;;5134933;27;20058;-72
2023/04/21 08:09:34;;;;;;;43.08;33.25;;;12.20;99.90;;;;;;5134785;27;20481;-72
2023/04/21 08:12:01;;;;;;;49.63;36.00;;;12.20;99.90;;;;;;5135456;27;20125;-72
2023/04/21 08:14:27;;;;;;;42.00;30.77;;;12.40;99.90;;;;;;5135614;27;20027;-72
2023/04/21 08:16:53;;;;;;;41.13;29.83;;;12.50;99.90;;;;;;5135816;27;20472;-71
2023/04/21 08:19:19;;;;;;;41.03;29.75;;;12.40;99.90;;;;;;5134211;27;20034;-72
2023/04/21 08:21:44;;;;;;;42.25;30.40;;;12.60;99.90;;;;;;5134798;27;20021;-74
2023/04/21 08:24:11;;;;;;;42.55;30.80;;;12.70;99.90;;;;;;5134923;27;20023;-74
2023/04/21 08:26:36;;;;;;;40.08;29.25;;;12.90;99.90;;;;;;5135446;27;20020;-74
2023/04/21 08:29:04;;;;;;;39.88;30.25;;;13.00;99.90;;;;;;5135193;27;20024;-73
2023/04/21 08:31:30;;;;;;;41.15;28.25;;;12.90;99.90;;;;;;5133170;27;20023;-73
2023/04/21 08:33:55;;;;;;;34.85;27.83;;;13.10;99.90;;;;;;5134315;27;20073;-73
2023/04/21 08:36:21;;;;;;;34.58;25.45;;;13.20;99.90;;;;;;5134875;27;20076;-73
2023/04/21 08:38:47;;;;;;;32.35;24.15;;;13.40;99.90;;;;;;5134642;27;20110;-73
2023/04/21 08:41:13;;;;;;;31.42;24.70;;;13.40;99.90;;;;;;5132943;27;20042;-73
2023/04/21 08:43:39;;;;;;;32.40;22.90;;;13.40;99.90;;;;;;5133428;27;20421;-73
2023/04/21 08:46:08;;;;;;;31.52;24.50;;;13.50;99.90;;;;;;5133782;27;20030;-72
2023/04/21 08:48:37;;;;;;;30.88;22.92;;;13.70;99.90;;;;;;5134129;27;20030;-72
2023/04/21 08:51:10;;;;;;;30.35;23.65;;;13.80;99.90;;;;;;5134164;27;20031;-73
2023/04/21 08:53:40;;;;;;;28.48;20.60;;;14.10;99.90;;;;;;5134529;27;20513;-73
2023/04/21 08:56:06;;;;;;;29.20;20.63;;;14.10;99.90;;;;;;5134632;27;20035;-73
2023/04/21 08:58:32;;;;;;;25.67;18.83;;;14.30;99.90;;;;;;5133157;27;20019;-74
2023/04/21 09:00:57;;;;;;;24.58;19.17;;;14.40;99.90;;;;;;5134474;27;20060;-75
2023/04/21 09:03:27;;;;;;;25.00;19.70;;;14.60;99.90;;;;;;5133759;27;20080;-73
2023/04/21 09:06:01;;;;;;;23.77;17.50;;;14.60;99.90;;;;;;5133504;27;20023;-73
2023/04/21 09:08:29;;;;;;;20.88;16.27;;;14.70;99.90;;;;;;5133277;27;20030;-73
2023/04/21 09:10:55;;;;;;;22.83;18.27;;;14.70;99.90;;;;;;5133122;27;20531;-73
2023/04/21 09:13:29;;;;;;;20.02;16.92;;;14.60;99.90;;;;;;5133355;27;20042;-73
2023/04/21 09:15:55;;;;;;;20.40;16.73;;;14.80;99.90;;;;;;5116349;27;20434;-74
2023/04/21 09:18:22;;;;;;;24.50;18.75;;;14.90;99.90;;;;;;5123096;27;20107;-73
2023/04/21 09:20:51;;;;;;;20.95;15.70;;;14.80;99.90;;;;;;5134027;27;20052;-73
2023/04/21 09:23:17;;;;;;;21.00;14.98;;;15.00;99.90;;;;;;5132695;27;20076;-73
2023/04/21 09:25:44;;;;;;;16.25;13.88;;;15.10;99.90;;;;;;5132420;27;20466;-73
2023/04/21 09:28:13;;;;;;;18.95;14.32;;;15.20;99.90;;;;;;5129362;27;20023;-75
2023/04/21 09:30:41;;;;;;;20.10;14.68;;;15.40;99.90;;;;;;5091740;27;20126;-71
2023/04/21 09:33:14;;;;;;;18.23;13.57;;;15.40;99.90;;;;;;5115165;27;20102;-71
2023/04/21 09:35:40;;;;;;;16.42;13.65;;;15.50;99.90;;;;;;5117121;27;20594;-71
2023/04/21 09:38:11;;;;;;;18.25;13.25;;;15.90;99.90;;;;;;5117801;27;20076;-71
2023/04/21 09:40:37;;;;;;;12.77;10.73;;;15.90;99.90;;;;;;5114220;27;20023;-71
2023/04/21 09:43:03;;;;;;;14.90;11.48;;;16.00;99.90;;;;;;5115642;27;20102;-71
2023/04/21 09:45:29;;;;;;;13.88;11.32;;;16.00;99.90;;;;;;5113528;27;20016;-71
2023/04/21 09:47:57;;;;;;;18.67;12.77;;;16.40;99.90;;;;;;5117170;27;20031;-71
2023/04/21 09:50:24;;;;;;;13.45;11.50;;;16.50;99.90;;;;;;5120344;27;20107;-71
2023/04/21 09:52:51;;;;;;;16.10;13.30;;;16.40;99.90;;;;;;5117085;27;20036;-71
2023/04/21 09:55:18;;;;;;;14.77;11.60;;;16.70;99.90;;;;;;5119756;27;20095;-69
2023/04/21 09:57:50;;;;;;;16.88;12.35;;;16.40;99.90;;;;;;5117276;27;20031;-70
2023/04/21 10:00:17;;;;;;;12.80;11.18;;;16.40;99.90;;;;;;5115242;27;20357;-72
2023/04/21 10:02:49;;;;;;;16.35;11.73;;;16.60;99.90;;;;;;5116724;27;20054;-72
2023/04/21 10:05:15;;;;;;;13.60;10.60;;;16.60;99.90;;;;;;5112529;27;20012;-72
2023/04/21 10:07:40;;;;;;;14.23;11.45;;;16.70;99.90;;;;;;5117048;27;20027;-72
2023/04/21 10:10:11;;;;;;;14.05;11.75;;;17.00;99.90;;;;;;5112737;28;20042;-72
2023/04/21 10:12:37;;;;;;;12.95;11.07;;;16.90;99.90;;;;;;5115272;28;20043;-72
2023/04/21 10:15:38;;;;;;;13.57;10.65;;;17.10;99.90;;;;;;5114134;28;20444;-72
2023/04/21 10:18:15;;;;;;;13.40;11.13;;;17.10;99.90;;;;;;5112331;27;20039;-73
2023/04/21 10:21:05;;;;;;;13.57;11.60;;;17.40;99.90;;;;;;5111865;28;20795;-73
2023/04/21 10:23:44;;;;;;;16.77;14.13;;;17.40;99.90;;;;;;5107246;28;20031;-73
2023/04/21 10:26:20;;;;;;;15.57;11.55;;;17.50;99.90;;;;;;5115521;28;20024;-73
2023/04/21 10:29:00;;;;;;;12.38;10.73;;;17.50;99.90;;;;;;5112828;27;20029;-73
2023/04/21 10:31:52;;;;;;;13.60;9.80;;;17.70;99.90;;;;;;5116537;27;20384;-73
2023/04/21 10:34:20;;;;;;;10.00;7.77;;;17.70;99.90;;;;;;5112765;27;20045;-73
2023/04/21 10:36:56;;;;;;;12.32;9.00;;;17.90;99.90;;;;;;5114553;27;20011;-73
2023/04/21 10:39:44;;;;;;;14.07;9.40;;;17.70;99.90;;;;;;5113644;27;20103;-73
2023/04/21 10:42:15;;;;;;;11.40;9.43;;;17.60;99.90;;;;;;5119072;27;20031;-73
2023/04/21 10:44:42;;;;;;;13.35;9.77;;;17.90;99.90;;;;;;5116953;27;20040;-72
2023/04/21 10:47:08;;;;;;;12.85;10.57;;;18.00;99.90;;;;;;5117085;27;20106;-72
2023/04/21 10:49:38;;;;;;;11.93;10.05;;;18.00;99.90;;;;;;5111954;27;20095;-72
2023/04/21 10:52:06;;;;;;;13.98;10.90;;;18.20;99.90;;;;;;5113493;28;20040;-72
2023/04/21 10:54:36;;;;;;;17.85;11.40;;;18.50;99.90;;;;;;5113915;28;20019;-72
2023/04/21 10:57:06;;;;;;;16.95;12.43;;;18.60;99.90;;;;;;5111101;28;20421;-72
2023/04/21 10:59:34;;;;;;;18.75;13.05;;;18.80;99.90;;;;;;5118040;28;20019;-72
2023/04/21 11:02:01;;;;;;;16.58;14.15;;;18.50;99.90;;;;;;5114191;28;20079;-72
2023/04/21 11:04:27;;;;;;;18.10;14.65;;;18.60;99.90;;;;;;5113991;28;20110;-72
2023/04/21 11:07:12;;;;;;;15.18;12.15;;;18.60;99.90;;;;;;5114399;27;20139;-72
2023/04/21 11:09:40;;;;;;;13.88;11.65;;;18.90;99.90;;;;;;5117459;27;20028;-73
2023/04/21 11:12:10;;;;;;;16.27;11.00;;;18.90;99.90;;;;;;5115803;27;20046;-73
2023/04/21 11:14:37;;;;;;;11.95;10.13;;;19.20;99.90;;;;;;5115913;27;20035;-73
2023/04/21 11:17:09;;;;;;;14.18;11.18;;;19.20;99.90;;;;;;5114139;27;20046;-73
2023/04/21 11:19:35;;;;;;;11.13;9.40;;;19.30;99.90;;;;;;5114979;27;20022;-73
2023/04/21 11:22:02;;;;;;;12.48;10.90;;;19.30;99.90;;;;;;5116344;27;20496;-72
2023/04/21 11:24:28;;;;;;;16.45;14.30;;;19.30;99.90;;;;;;5119327;27;20028;-71
2023/04/21 11:26:54;;;;;;;17.27;14.95;;;19.20;99.90;;;;;;5119537;27;20035;-69
2023/04/21 11:29:19;;;;;;;15.07;13.07;;;19.20;99.90;;;;;;5117954;27;20033;-70
2023/04/21 11:31:47;;;;;;;12.30;10.82;;;19.30;99.90;;;;;;5117457;27;20381;-69
2023/04/21 11:34:15;;;;;;;12.45;10.68;;;19.20;99.90;;;;;;5119542;27;20738;-69
2023/04/21 11:36:43;;;;;;;16.45;11.50;;;18.90;99.90;;;;;;5117389;27;20069;-70
2023/04/21 11:39:11;;;;;;;12.32;10.50;;;19.00;99.90;;;;;;5117747;27;20023;-70
2023/04/21 11:41:43;;;;;;;14.63;10.77;;;18.90;99.90;;;;;;5115424;27;20023;-70
2023/04/21 11:44:10;;;;;;;14.48;10.90;;;18.60;99.90;;;;;;5116719;27;20031;-69
2023/04/21 11:46:36;;;;;;;13.82;9.90;;;18.80;99.90;;;;;;5113228;27;20031;-70
2023/04/21 11:49:03;;;;;;;11.70;9.57;;;18.80;99.90;;;;;;5116785;27;20430;-70
2023/04/21 11:51:34;;;;;;;15.10;12.57;;;18.80;99.90;;;;;;5119055;27;20099;-70
2023/04/21 11:54:00;;;;;;;14.13;12.30;;;18.60;99.90;;;;;;5117575;27;20031;-70
2023/04/21 11:56:26;;;;;;;15.77;14.18;;;18.80;99.90;;;;;;5116365;27;20035;-70
2023/04/21 11:58:52;;;;;;;13.55;11.52;;;18.90;99.90;;;;;;5115442;27;20046;-70
2023/04/21 12:01:19;;;;;;;14.45;11.50;;;18.80;99.90;;;;;;5116380;27;20041;-73
2023/04/21 12:03:55;;;;;;;11.85;10.65;;;18.90;99.90;;;;;;5116015;27;20024;-72
2023/04/21 12:06:30;;;;;;;12.13;10.90;;;18.60;99.90;;;;;;5118709;27;20062;-72
2023/04/21 12:09:00;;;;;;;12.38;11.07;;;18.50;99.90;;;;;;5116173;27;20024;-72
2023/04/21 12:11:28;;;;;;;11.27;10.15;;;18.70;99.90;;;;;;5118979;27;20174;-72
2023/04/21 12:13:59;;;;;;;11.45;9.98;;;18.80;99.90;;;;;;5116927;27;20040;-72
2023/04/21 12:16:26;;;;;;;12.07;10.85;;;18.80;99.90;;;;;;5117780;27;20547;-73
2023/04/21 12:18:52;;;;;;;15.20;11.02;;;19.20;99.90;;;;;;5116977;27;20030;-73
2023/04/21 12:21:18;;;;;;;15.77;12.60;;;19.50;99.90;;;;;;5114236;27;20051;-73
2023/04/21 12:23:43;;;;;;;14.90;13.10;;;19.60;99.90;;;;;;5119250;27;20042;-71
2023/04/21 12:26:10;;;;;;;14.63;13.13;;;19.70;99.90;;;;;;5123041;27;20027;-71
2023/04/21 12:28:37;;;;;;;16.02;12.30;;;19.40;99.90;;;;;;5116250;27;20383;-72